sensor_id;sensor_type;location;lat;lon;timestamp;pressure;altitude;pressure_sealevel;temperature;humidity
33949;BME280;20229;49.856;19.030;2023-05-07T00:00:41;101767.84;;;12.33;86.08
33949;BME280;20229;49.856;19.030;2023-05-07T00:05:56;101761.63;;;12.30;86.55
33949;BME280;20229;49.856;19.030;2023-05-07T00:11:10;101753.60;;;12.25;86.86
33949;BME280;20229;49.856;19.030;2023-05-07T00:16:24;101763.01;;;12.19;86.81
33949;BME280;20229;49.856;19.030;2023-05-07T00:21:38;101755.07;;;12.13;86.61
33949;BME280;20229;49.856;19.030;2023-05-07T00:26:52;101755.12;;;12.12;86.61
33949;BME280;20229;49.856;19.030;2023-05-07T00:32:06;101757.94;;;12.10;86.21
33949;BME280;20229;49.856;19.030;2023-05-07T00:37:20;101759.95;;;12.07;86.78
33949;BME280;20229;49.856;19.030;2023-05-07T00:42:34;101761.09;;;12.01;86.75
33949;BME280;20229;49.856;19.030;2023-05-07T00:47:48;101764.80;;;12.00;87.44
33949;BME280;20229;49.856;19.030;2023-05-07T00:53:02;101762.28;;;11.95;87.55
33949;BME280;20229;49.856;19.030;2023-05-07T00:58:16;101767.80;;;11.94;87.41
33949;BME280;20229;49.856;19.030;2023-05-07T01:03:30;101766.12;;;11.91;87.59
33949;BME280;20229;49.856;19.030;2023-05-07T01:08:44;101779.80;;;11.91;87.19
33949;BME280;20229;49.856;19.030;2023-05-07T01:13:59;101780.90;;;11.87;87.30
33949;BME280;20229;49.856;19.030;2023-05-07T01:19:17;101775.66;;;11.81;87.66
33949;BME280;20229;49.856;19.030;2023-05-07T01:24:32;101781.27;;;11.78;87.14
33949;BME280;20229;49.856;19.030;2023-05-07T01:29:46;101786.88;;;11.75;87.19
33949;BME280;20229;49.856;19.030;2023-05-07T01:35:01;101767.80;;;11.73;87.42
33949;BME280;20229;49.856;19.030;2023-05-07T01:40:16;101770.67;;;11.70;87.09
33949;BME280;20229;49.856;19.030;2023-05-07T01:45:34;101769.91;;;11.67;87.34
33949;BME280;20229;49.856;19.030;2023-05-07T01:50:48;101780.15;;;11.62;87.56
33949;BME280;20229;49.856;19.030;2023-05-07T01:56:02;101781.32;;;11.56;87.41
33949;BME280;20229;49.856;19.030;2023-05-07T02:01:16;101778.77;;;11.52;87.09
33949;BME280;20229;49.856;19.030;2023-05-07T02:06:31;101777.13;;;11.47;87.32
33949;BME280;20229;49.856;19.030;2023-05-07T02:11:46;101788.06;;;11.47;87.05
33949;BME280;20229;49.856;19.030;2023-05-07T02:16:59;101789.29;;;11.40;87.23
33949;BME280;20229;49.856;19.030;2023-05-07T02:22:13;101788.48;;;11.38;87.24
33949;BME280;20229;49.856;19.030;2023-05-07T02:27:27;101786.00;;;11.32;87.46
33949;BME280;20229;49.856;19.030;2023-05-07T02:32:41;101786.96;;;11.31;87.44
33949;BME280;20229;49.856;19.030;2023-05-07T02:37:55;101787.09;;;11.28;87.44
33949;BME280;20229;49.856;19.030;2023-05-07T02:43:10;101774.76;;;11.18;86.98
33949;BME280;20229;49.856;19.030;2023-05-07T02:48:24;101784.59;;;11.22;87.64
33949;BME280;20229;49.856;19.030;2023-05-07T02:53:39;101774.76;;;11.18;87.53
33949;BME280;20229;49.856;19.030;2023-05-07T02:58:53;101788.46;;;11.16;87.58
33949;BME280;20229;49.856;19.030;2023-05-07T03:04:06;101786.70;;;11.15;88.26
33949;BME280;20229;49.856;19.030;2023-05-07T03:09:20;101797.70;;;11.14;88.22
33949;BME280;20229;49.856;19.030;2023-05-07T03:14:34;101798.64;;;11.13;87.97
33949;BME280;20229;49.856;19.030;2023-05-07T03:19:48;101805.18;;;11.09;88.39
33949;BME280;20229;49.856;19.030;2023-05-07T03:25:02;101808.88;;;11.08;88.33
33949;BME280;20229;49.856;19.030;2023-05-07T03:30:16;101813.51;;;11.06;88.74
33949;BME280;20229;49.856;19.030;2023-05-07T03:35:30;101814.47;;;11.05;88.08
33949;BME280;20229;49.856;19.030;2023-05-07T03:40:44;101821.86;;;11.03;88.31
33949;BME280;20229;49.856;19.030;2023-05-07T03:45:59;101819.17;;;11.01;88.83
33949;BME280;20229;49.856;19.030;2023-05-07T03:51:14;101823.83;;;10.99;88.56
33949;BME280;20229;49.856;19.030;2023-05-07T03:56:28;101824.83;;;10.96;88.70
33949;BME280;20229;49.856;19.030;2023-05-07T04:01:42;101835.76;;;10.96;88.83
33949;BME280;20229;49.856;19.030;2023-05-07T04:06:56;101834.80;;;10.97;88.92
33949;BME280;20229;49.856;19.030;2023-05-07T04:12:10;101848.57;;;10.94;89.09
33949;BME280;20229;49.856;19.030;2023-05-07T04:17:24;101853.16;;;10.94;88.96
33949;BME280;20229;49.856;19.030;2023-05-07T04:22:38;101853.16;;;10.94;88.87
33949;BME280;20229;49.856;19.030;2023-05-07T04:27:52;101858.61;;;10.94;88.50
33949;BME280;20229;49.856;19.030;2023-05-07T04:33:07;101861.31;;;10.95;89.02
33949;BME280;20229;49.856;19.030;2023-05-07T04:38:20;101876.74;;;10.96;89.27
33949;BME280;20229;49.856;19.030;2023-05-07T04:43:36;101887.67;;;10.96;88.56
33949;BME280;20229;49.856;19.030;2023-05-07T04:48:51;101894.09;;;10.95;89.10
33949;BME280;20229;49.856;19.030;2023-05-07T04:54:05;101894.98;;;10.96;89.54
33949;BME280;20229;49.856;19.030;2023-05-07T04:59:18;101896.67;;;10.98;89.92
33949;BME280;20229;49.856;19.030;2023-05-07T05:04:33;101908.56;;;10.97;89.28
33949;BME280;20229;49.856;19.030;2023-05-07T05:09:47;101903.10;;;10.97;89.54
33949;BME280;20229;49.856;19.030;2023-05-07T05:15:01;101913.92;;;11.00;89.81
33949;BME280;20229;49.856;19.030;2023-05-07T05:20:15;101911.87;;;11.06;89.07
33949;BME280;20229;49.856;19.030;2023-05-07T05:25:29;101921.03;;;11.05;89.46
33949;BME280;20229;49.856;19.030;2023-05-07T05:30:43;101918.20;;;11.08;88.97
33949;BME280;20229;49.856;19.030;2023-05-07T05:35:56;101934.66;;;11.06;88.89
33949;BME280;20229;49.856;19.030;2023-05-07T05:41:11;101931.20;;;11.01;88.91
33949;BME280;20229;49.856;19.030;2023-05-07T05:46:25;101933.16;;;10.97;89.59
33949;BME280;20229;49.856;19.030;2023-05-07T05:51:39;101936.90;;;10.95;89.89
33949;BME280;20229;49.856;19.030;2023-05-07T05:56:53;101942.51;;;10.92;89.86
33949;BME280;20229;49.856;19.030;2023-05-07T06:02:07;101945.27;;;10.90;90.47
33949;BME280;20229;49.856;19.030;2023-05-07T06:07:22;101942.73;;;10.86;91.53
33949;BME280;20229;49.856;19.030;2023-05-07T06:12:36;101952.88;;;10.82;92.73
33949;BME280;20229;49.856;19.030;2023-05-07T06:17:50;101956.68;;;10.78;92.73
33949;BME280;20229;49.856;19.030;2023-05-07T06:23:03;101959.63;;;10.72;92.00
33949;BME280;20229;49.856;19.030;2023-05-07T06:28:17;101969.00;;;10.65;92.88
33949;BME280;20229;49.856;19.030;2023-05-07T06:33:31;101974.57;;;10.62;92.84
33949;BME280;20229;49.856;19.030;2023-05-07T06:38:45;101975.63;;;10.58;93.19
33949;BME280;20229;49.856;19.030;2023-05-07T06:43:59;101980.24;;;10.56;93.71
33949;BME280;20229;49.856;19.030;2023-05-07T06:49:13;101988.78;;;10.46;93.46
33949;BME280;20229;49.856;19.030;2023-05-07T06:54:29;101992.54;;;10.42;93.62
33949;BME280;20229;49.856;19.030;2023-05-07T06:59:42;101999.95;;;10.39;93.69
33949;BME280;20229;49.856;19.030;2023-05-07T07:04:56;101994.45;;;10.40;93.97
33949;BME280;20229;49.856;19.030;2023-05-07T07:10:10;102002.64;;;10.40;94.00
33949;BME280;20229;49.856;19.030;2023-05-07T07:15:24;102013.59;;;10.39;94.03
33949;BME280;20229;49.856;19.030;2023-05-07T07:20:39;102001.78;;;10.38;94.53
33949;BME280;20229;49.856;19.030;2023-05-07T07:25:52;102027.30;;;10.37;93.90
33949;BME280;20229;49.856;19.030;2023-05-07T07:31:06;102029.20;;;10.35;94.15
33949;BME280;20229;49.856;19.030;2023-05-07T07:36:20;102039.39;;;10.30;94.33
33949;BME280;20229;49.856;19.030;2023-05-07T07:41:34;102033.07;;;10.28;94.29
33949;BME280;20229;49.856;19.030;2023-05-07T07:46:47;102050.48;;;10.25;94.03
33949;BME280;20229;49.856;19.030;2023-05-07T07:52:01;102055.40;;;10.13;94.67
33949;BME280;20229;49.856;19.030;2023-05-07T07:57:16;102061.05;;;10.06;94.35
33949;BME280;20229;49.856;19.030;2023-05-07T08:02:30;102063.68;;;10.10;94.37
33949;BME280;20229;49.856;19.030;2023-05-07T08:07:44;102070.16;;;10.07;94.29
33949;BME280;20229;49.856;19.030;2023-05-07T08:13:02;102066.73;;;10.00;93.90
33949;BME280;20229;49.856;19.030;2023-05-07T08:18:17;102081.20;;;10.02;93.85
33949;BME280;20229;49.856;19.030;2023-05-07T08:23:31;102079.35;;;10.03;93.88
33949;BME280;20229;49.856;19.030;2023-05-07T08:28:45;102091.22;;;10.02;93.48
33949;BME280;20229;49.856;19.030;2023-05-07T08:33:59;102088.65;;;9.97;93.25
33949;BME280;20229;49.856;19.030;2023-05-07T08:39:13;102097.87;;;9.93;93.06
33949;BME280;20229;49.856;19.030;2023-05-07T08:44:28;102103.36;;;9.92;92.39
33949;BME280;20229;49.856;19.030;2023-05-07T08:49:46;102114.33;;;9.90;92.50
33949;BME280;20229;49.856;19.030;2023-05-07T08:55:01;102119.88;;;9.87;92.36
33949;BME280;20229;49.856;19.030;2023-05-07T09:00:17;102128.22;;;9.83;92.01
33949;BME280;20229;49.856;19.030;2023-05-07T09:05:31;102132.76;;;9.82;92.01
33949;BME280;20229;49.856;19.030;2023-05-07T09:10:45;102138.21;;;9.82;92.25
33949;BME280;20229;49.856;19.030;2023-05-07T09:21:25;102139.71;;;9.92;91.73
33949;BME280;20229;49.856;19.030;2023-05-07T09:26:40;102152.13;;;10.02;90.58
33949;BME280;20229;49.856;19.030;2023-05-07T09:34:07;102152.13;;;10.02;90.10
33949;BME280;20229;49.856;19.030;2023-05-07T09:39:41;102154.03;;;10.00;91.08
33949;BME280;20229;49.856;19.030;2023-05-07T09:44:56;102156.46;;;10.10;90.30
33949;BME280;20229;49.856;19.030;2023-05-07T09:50:10;102166.33;;;10.14;88.79
33949;BME280;20229;49.856;19.030;2023-05-07T09:55:26;102173.45;;;10.19;89.64
33949;BME280;20229;49.856;19.030;2023-05-07T10:00:41;102174.42;;;10.17;88.52
33949;BME280;20229;49.856;19.030;2023-05-07T10:05:56;102182.52;;;10.20;88.28
33949;BME280;20229;49.856;19.030;2023-05-07T10:11:11;102184.41;;;10.18;88.34
33949;BME280;20229;49.856;19.030;2023-05-07T10:16:27;102198.90;;;10.20;87.27
33949;BME280;20229;49.856;19.030;2023-05-07T10:21:51;102194.54;;;10.14;87.74
33949;BME280;20229;49.856;19.030;2023-05-07T10:27:11;102193.29;;;10.26;87.80
33949;BME280;20229;49.856;19.030;2023-05-07T10:37:53;102212.59;;;10.18;85.63
33949;BME280;20229;49.856;19.030;2023-05-07T10:43:10;102218.18;;;10.14;85.66
33949;BME280;20229;49.856;19.030;2023-05-07T10:48:24;102215.45;;;10.14;86.36
33949;BME280;20229;49.856;19.030;2023-05-07T10:53:37;102209.87;;;10.18;86.45
33949;BME280;20229;49.856;19.030;2023-05-07T11:04:34;102210.70;;;10.20;86.55
33949;BME280;20229;49.856;19.030;2023-05-07T11:10:20;102215.27;;;10.20;85.06
33949;BME280;20229;49.856;19.030;2023-05-07T11:15:36;102226.28;;;10.17;85.73
33949;BME280;20229;49.856;19.030;2023-05-07T11:20:57;102223.64;;;10.14;84.92
33949;BME280;20229;49.856;19.030;2023-05-07T11:26:12;102229.87;;;10.19;85.42
33949;BME280;20229;49.856;19.030;2023-05-07T11:31:27;102230.90;;;10.15;83.95
33949;BME280;20229;49.856;19.030;2023-05-07T11:36:43;102239.80;;;10.21;85.96
33949;BME280;20229;49.856;19.030;2023-05-07T11:42:00;102249.00;;;10.17;85.00
33949;BME280;20229;49.856;19.030;2023-05-07T11:47:18;102247.30;;;10.13;85.34
33949;BME280;20229;49.856;19.030;2023-05-07T11:52:34;102247.39;;;10.10;84.34
33949;BME280;20229;49.856;19.030;2023-05-07T11:57:48;102247.52;;;10.07;83.98
33949;BME280;20229;49.856;19.030;2023-05-07T12:03:05;102254.12;;;9.98;84.45
33949;BME280;20229;49.856;19.030;2023-05-07T12:08:21;102262.31;;;9.98;84.10
33949;BME280;20229;49.856;19.030;2023-05-07T12:13:35;102261.36;;;9.99;84.53
33949;BME280;20229;49.856;19.030;2023-05-07T12:18:50;102254.98;;;10.00;84.46
33949;BME280;20229;49.856;19.030;2023-05-07T12:24:08;102269.54;;;9.99;83.17
33949;BME280;20229;49.856;19.030;2023-05-07T12:29:25;102268.71;;;9.97;83.83
33949;BME280;20229;49.856;19.030;2023-05-07T12:34:39;102276.89;;;9.97;83.54
33949;BME280;20229;49.856;19.030;2023-05-07T12:45:22;102283.38;;;9.93;82.15
33949;BME280;20229;49.856;19.030;2023-05-07T12:50:36;102283.99;;;10.03;82.83
33949;BME280;20229;49.856;19.030;2023-05-07T12:55:52;102291.91;;;10.12;82.61
33949;BME280;20229;49.856;19.030;2023-05-07T13:01:08;102305.79;;;10.04;82.32
33949;BME280;20229;49.856;19.030;2023-05-07T13:06:24;102300.41;;;10.01;82.30
33949;BME280;20229;49.856;19.030;2023-05-07T13:11:38;102296.02;;;9.96;82.62
33949;BME280;20229;49.856;19.030;2023-05-07T13:16:52;102299.55;;;9.99;82.88
33949;BME280;20229;49.856;19.030;2023-05-07T13:22:07;102303.31;;;9.95;83.33
33949;BME280;20229;49.856;19.030;2023-05-07T13:27:20;102299.69;;;9.95;84.18
33949;BME280;20229;49.856;19.030;2023-05-07T13:32:34;102302.59;;;9.89;83.78
33949;BME280;20229;49.856;19.030;2023-05-07T13:37:49;102309.37;;;9.74;83.68
33949;BME280;20229;49.856;19.030;2023-05-07T13:43:03;102307.96;;;9.59;83.61
33949;BME280;20229;49.856;19.030;2023-05-07T13:48:16;102301.02;;;9.47;84.46
33949;BME280;20229;49.856;19.030;2023-05-07T13:53:30;102299.12;;;9.49;83.99
33949;BME280;20229;49.856;19.030;2023-05-07T13:58:44;102304.65;;;9.46;83.99
33949;BME280;20229;49.856;19.030;2023-05-07T14:03:57;102303.84;;;9.43;83.40
33949;BME280;20229;49.856;19.030;2023-05-07T14:09:13;102311.13;;;9.42;83.99
33949;BME280;20229;49.856;19.030;2023-05-07T14:14:28;102319.38;;;9.39;83.66
33949;BME280;20229;49.856;19.030;2023-05-07T14:19:43;102313.70;;;9.48;84.28
33949;BME280;20229;49.856;19.030;2023-05-07T14:24:57;102314.44;;;9.55;83.52
33949;BME280;20229;49.856;19.030;2023-05-07T14:30:11;102326.45;;;9.46;83.29
33949;BME280;20229;49.856;19.030;2023-05-07T14:35:26;102331.16;;;9.40;83.94
33949;BME280;20229;49.856;19.030;2023-05-07T14:40:40;102332.19;;;9.36;84.35
33949;BME280;20229;49.856;19.030;2023-05-07T14:45:54;102343.15;;;9.34;83.62
33949;BME280;20229;49.856;19.030;2023-05-07T14:51:08;102344.35;;;9.22;82.67
33949;BME280;20229;49.856;19.030;2023-05-07T14:56:22;102351.80;;;9.14;83.46
33949;BME280;20229;49.856;19.030;2023-05-07T15:01:36;102359.88;;;9.19;83.54
33949;BME280;20229;49.856;19.030;2023-05-07T15:06:50;102355.41;;;9.15;83.52
33949;BME280;20229;49.856;19.030;2023-05-07T15:12:06;102349.34;;;9.03;82.63
33949;BME280;20229;49.856;19.030;2023-05-07T15:17:22;102362.20;;;8.97;82.78
33949;BME280;20229;49.856;19.030;2023-05-07T15:22:36;102373.21;;;8.92;83.50
33949;BME280;20229;49.856;19.030;2023-05-07T15:27:50;102374.85;;;8.99;83.47
33949;BME280;20229;49.856;19.030;2023-05-07T15:33:04;102374.79;;;9.02;83.61
33949;BME280;20229;49.856;19.030;2023-05-07T15:38:20;102377.53;;;9.01;82.85
33949;BME280;20229;49.856;19.030;2023-05-07T15:43:45;102389.49;;;8.95;81.80
33949;BME280;20229;49.856;19.030;2023-05-07T15:48:57;102385.95;;;8.90;82.55
33949;BME280;20229;49.856;19.030;2023-05-07T15:54:11;102386.12;;;8.84;82.72
33949;BME280;20229;49.856;19.030;2023-05-07T15:59:25;102378.86;;;8.83;82.99
33949;BME280;20229;49.856;19.030;2023-05-07T16:04:39;102373.56;;;8.77;83.01
33949;BME280;20229;49.856;19.030;2023-05-07T16:09:54;102386.37;;;8.72;82.72
33949;BME280;20229;49.856;19.030;2023-05-07T16:15:08;102386.54;;;8.64;83.33
33949;BME280;20229;49.856;19.030;2023-05-07T16:20:27;102380.31;;;8.59;82.78
33949;BME280;20229;49.856;19.030;2023-05-07T16:25:44;102400.38;;;8.53;82.71
33949;BME280;20229;49.856;19.030;2023-05-07T16:30:58;102404.95;;;8.51;82.94
33949;BME280;20229;49.856;19.030;2023-05-07T16:36:12;102389.72;;;8.43;83.66
33949;BME280;20229;49.856;19.030;2023-05-07T16:41:26;102397.94;;;8.41;83.36
33949;BME280;20229;49.856;19.030;2023-05-07T16:46:39;102399.77;;;8.39;83.56
33949;BME280;20229;49.856;19.030;2023-05-07T16:51:53;102392.52;;;8.36;83.06
33949;BME280;20229;49.856;19.030;2023-05-07T16:57:07;102394.41;;;8.34;83.37
33949;BME280;20229;49.856;19.030;2023-05-07T17:02:20;102403.58;;;8.29;83.52
33949;BME280;20229;49.856;19.030;2023-05-07T17:07:34;102404.56;;;8.25;83.46
33949;BME280;20229;49.856;19.030;2023-05-07T17:12:48;102411.01;;;8.19;83.54
33949;BME280;20229;49.856;19.030;2023-05-07T17:18:02;102423.81;;;8.12;83.60
33949;BME280;20229;49.856;19.030;2023-05-07T17:23:17;102422.98;;;8.10;83.65
33949;BME280;20229;49.856;19.030;2023-05-07T17:28:32;102425.80;;;8.04;84.30
33949;BME280;20229;49.856;19.030;2023-05-07T17:33:46;102435.89;;;7.98;85.10
33949;BME280;20229;49.856;19.030;2023-05-07T17:39:02;102437.83;;;7.91;86.00
33949;BME280;20229;49.856;19.030;2023-05-07T17:44:17;102440.61;;;7.88;86.72
33949;BME280;20229;49.856;19.030;2023-05-07T17:49:33;102441.62;;;7.82;86.99
33949;BME280;20229;49.856;19.030;2023-05-07T17:54:50;102435.33;;;7.79;86.74
33949;BME280;20229;49.856;19.030;2023-05-07T18:00:04;102438.99;;;7.78;87.54
33949;BME280;20229;49.856;19.030;2023-05-07T18:05:22;102447.14;;;7.78;87.25
33949;BME280;20229;49.856;19.030;2023-05-07T18:10:36;102443.53;;;7.76;86.52
33949;BME280;20229;49.856;19.030;2023-05-07T18:15:50;102451.74;;;7.73;86.27
33949;BME280;20229;49.856;19.030;2023-05-07T18:21:04;102446.34;;;7.70;86.46
33949;BME280;20229;49.856;19.030;2023-05-07T18:26:19;102457.21;;;7.70;86.32
33949;BME280;20229;49.856;19.030;2023-05-07T18:31:33;102453.66;;;7.66;86.89
33949;BME280;20229;49.856;19.030;2023-05-07T18:36:48;102460.06;;;7.63;86.99
33949;BME280;20229;49.856;19.030;2023-05-07T18:42:02;102466.39;;;7.62;87.35
33949;BME280;20229;49.856;19.030;2023-05-07T18:47:17;102457.40;;;7.59;87.02
33949;BME280;20229;49.856;19.030;2023-05-07T18:52:31;102475.57;;;7.55;86.70
33949;BME280;20229;49.856;19.030;2023-05-07T18:57:45;102481.05;;;7.52;86.99
33949;BME280;20229;49.856;19.030;2023-05-07T19:02:59;102482.92;;;7.50;87.04
33949;BME280;20229;49.856;19.030;2023-05-07T19:08:13;102481.18;;;7.46;86.85
33949;BME280;20229;49.856;19.030;2023-05-07T19:13:27;102473.91;;;7.45;86.98
33949;BME280;20229;49.856;19.030;2023-05-07T19:18:40;102485.68;;;7.47;87.03
33949;BME280;20229;49.856;19.030;2023-05-07T19:23:55;102485.73;;;7.44;87.40
33949;BME280;20229;49.856;19.030;2023-05-07T19:29:10;102495.66;;;7.45;87.21
33949;BME280;20229;49.856;19.030;2023-05-07T19:34:24;102500.20;;;7.46;87.27
33949;BME280;20229;49.856;19.030;2023-05-07T19:39:39;102504.73;;;7.44;86.95
33949;BME280;20229;49.856;19.030;2023-05-07T19:44:54;102507.53;;;7.39;86.70
33949;BME280;20229;49.856;19.030;2023-05-07T19:50:09;102510.29;;;7.35;86.81
33949;BME280;20229;49.856;19.030;2023-05-07T19:55:23;102511.27;;;7.32;86.19
33949;BME280;20229;49.856;19.030;2023-05-07T20:00:36;102514.83;;;7.34;85.95
33949;BME280;20229;49.856;19.030;2023-05-07T20:05:50;102522.13;;;7.31;86.38
33949;BME280;20229;49.856;19.030;2023-05-07T20:11:05;102517.66;;;7.27;86.89
33949;BME280;20229;49.856;19.030;2023-05-07T20:16:19;102510.41;;;7.29;86.75
33949;BME280;20229;49.856;19.030;2023-05-07T20:21:33;102507.69;;;7.27;87.00
33949;BME280;20229;49.856;19.030;2023-05-07T20:26:46;102513.16;;;7.24;86.63
33949;BME280;20229;49.856;19.030;2023-05-07T20:32:01;102523.09;;;7.27;86.65
33949;BME280;20229;49.856;19.030;2023-05-07T20:37:15;102533.11;;;7.23;86.90
33949;BME280;20229;49.856;19.030;2023-05-07T20:42:29;102541.28;;;7.22;87.23
33949;BME280;20229;49.856;19.030;2023-05-07T20:47:43;102539.43;;;7.24;86.51
33949;BME280;20229;49.856;19.030;2023-05-07T20:52:57;102550.26;;;7.27;87.05
33949;BME280;20229;49.856;19.030;2023-05-07T20:58:11;102545.75;;;7.24;86.92
33949;BME280;20229;49.856;19.030;2023-05-07T21:03:24;102556.70;;;7.21;86.97
33949;BME280;20229;49.856;19.030;2023-05-07T21:08:38;102569.42;;;7.16;86.77
33949;BME280;20229;49.856;19.030;2023-05-07T21:13:52;102560.44;;;7.09;86.98
33949;BME280;20229;49.856;19.030;2023-05-07T21:19:06;102557.83;;;7.03;87.56
33949;BME280;20229;49.856;19.030;2023-05-07T21:24:20;102554.21;;;7.01;88.27
33949;BME280;20229;49.856;19.030;2023-05-07T21:29:34;102555.15;;;7.00;87.88
33949;BME280;20229;49.856;19.030;2023-05-07T21:34:49;102559.74;;;6.92;88.65
33949;BME280;20229;49.856;19.030;2023-05-07T21:40:04;102558.85;;;6.91;88.72
33949;BME280;20229;49.856;19.030;2023-05-07T21:45:18;102556.13;;;6.93;88.48
33949;BME280;20229;49.856;19.030;2023-05-07T21:50:32;102566.16;;;6.85;88.57
33949;BME280;20229;49.856;19.030;2023-05-07T21:55:46;102567.98;;;6.84;88.09
33949;BME280;20229;49.856;19.030;2023-05-07T22:01:00;102579.73;;;6.85;88.39
33949;BME280;20229;49.856;19.030;2023-05-07T22:06:15;102568.02;;;6.83;88.19
33949;BME280;20229;49.856;19.030;2023-05-07T22:11:33;102571.62;;;6.82;88.12
33949;BME280;20229;49.856;19.030;2023-05-07T22:16:47;102580.66;;;6.84;87.73
33949;BME280;20229;49.856;19.030;2023-05-07T22:22:01;102565.30;;;6.83;88.05
33949;BME280;20229;49.856;19.030;2023-05-07T22:27:15;102561.70;;;6.82;88.02
33949;BME280;20229;49.856;19.030;2023-05-07T22:32:29;102562.63;;;6.80;88.12
33949;BME280;20229;49.856;19.030;2023-05-07T22:37:45;102562.63;;;6.78;88.37
33949;BME280;20229;49.856;19.030;2023-05-07T22:42:59;102557.16;;;6.81;88.11
33949;BME280;20229;49.856;19.030;2023-05-07T22:48:13;102562.59;;;6.81;88.18
33949;BME280;20229;49.856;19.030;2023-05-07T22:53:26;102551.76;;;6.78;88.76
33949;BME280;20229;49.856;19.030;2023-05-07T22:58:40;102545.40;;;6.81;88.63
33949;BME280;20229;49.856;19.030;2023-05-07T23:03:54;102548.11;;;6.82;88.94
33949;BME280;20229;49.856;19.030;2023-05-07T23:09:09;102550.83;;;6.82;89.02
33949;BME280;20229;49.856;19.030;2023-05-07T23:14:27;102559.88;;;6.83;88.49
33949;BME280;20229;49.856;19.030;2023-05-07T23:19:41;102559.88;;;6.81;88.30
33949;BME280;20229;49.856;19.030;2023-05-07T23:24:55;102549.96;;;6.79;88.58
33949;BME280;20229;49.856;19.030;2023-05-07T23:30:10;102550.85;;;6.78;88.53
33949;BME280;20229;49.856;19.030;2023-05-07T23:35:23;102537.32;;;6.75;88.51
33949;BME280;20229;49.856;19.030;2023-05-07T23:40:38;102539.15;;;6.74;88.17
33949;BME280;20229;49.856;19.030;2023-05-07T23:45:52;102539.15;;;6.74;88.19
33949;BME280;20229;49.856;19.030;2023-05-07T23:51:06;102542.77;;;6.73;88.28
33949;BME280;20229;49.856;19.030;2023-05-07T23:56:20;102531.95;;;6.70;88.24
